createdAt,value
2023-05-10T00:02:07.032Z,100001.72
2023-05-10T00:04:36.613Z,100007.78
2023-05-10T00:07:04.709Z,100009.66
2023-05-10T00:09:33.145Z,100014.69
2023-05-10T00:12:01.476Z,100017.94
2023-05-10T00:14:29.967Z,100026.69
2023-05-10T00:16:58.192Z,100017.56
2023-05-10T00:19:26.362Z,100020.94
2023-05-10T00:21:55.967Z,100019.63
2023-05-10T00:24:24.289Z,100024.88
2023-05-10T00:26:52.318Z,100026.69
2023-05-10T00:29:20.775Z,100031.94
2023-05-10T00:31:49.507Z,100025.88
2023-05-10T00:34:17.592Z,100039.03
2023-05-10T00:36:46.990Z,100026.25
2023-05-10T00:39:16.603Z,100028.75
2023-05-10T00:41:44.971Z,100025.75
2023-05-10T00:44:13.130Z,100029.50
2023-05-10T00:46:41.222Z,100016.47
2023-05-10T00:49:09.431Z,100022.03
2023-05-10T00:51:37.882Z,100019.16
2023-05-10T00:54:07.935Z,100025.38
2023-05-10T00:56:37.838Z,100026.69
2023-05-10T00:59:05.893Z,100028.56
2023-05-10T01:01:34.432Z,100037.16
2023-05-10T01:04:03.135Z,100028.88
2023-05-10T01:06:31.533Z,100026.19
2023-05-10T01:08:59.736Z,100024.88
2023-05-10T01:11:27.900Z,100016.56
2023-05-10T01:13:59.957Z,100017.44
2023-05-10T01:16:28.718Z,100017.75
2023-05-10T01:18:57.460Z,100021.66
2023-05-10T01:21:30.428Z,100007.53
2023-05-10T01:24:11.856Z,100021.53
2023-05-10T01:26:57.952Z,100011.91
2023-05-10T01:29:41.415Z,100015.63
2023-05-10T01:32:18.889Z,100022.41
2023-05-10T01:34:50.424Z,100019.34
2023-05-10T01:37:22.948Z,100011.59
2023-05-10T01:39:56.791Z,100020.72
2023-05-10T01:42:28.276Z,100013.13
2023-05-10T01:45:00.661Z,100013.44
2023-05-10T01:47:33.759Z,100012.75
2023-05-10T01:50:04.302Z,100017.81
2023-05-10T01:52:34.247Z,100016.00
2023-05-10T01:55:04.330Z,100019.34
2023-05-10T01:57:35.388Z,100011.78
2023-05-10T02:00:03.990Z,100009.28
2023-05-10T02:02:47.226Z,100008.59
2023-05-10T02:05:16.825Z,100004.50
2023-05-10T02:07:45.789Z,100009.47
2023-05-10T02:10:14.212Z,100003.03
2023-05-10T02:12:43.841Z,100003.69
2023-05-10T02:15:13.975Z,100002.66
2023-05-10T02:17:44.517Z,100006.50
2023-05-10T02:20:15.502Z,100012.25
2023-05-10T02:22:45.410Z,100006.84
2023-05-10T02:25:16.743Z,100012.25
2023-05-10T02:27:45.976Z,100014.09
2023-05-10T02:30:14.727Z,100012.09
2023-05-10T02:32:43.324Z,100011.91
2023-05-10T02:35:12.076Z,100011.28
2023-05-10T02:37:42.102Z,100011.06
2023-05-10T02:40:10.929Z,100009.91
2023-05-10T02:42:39.968Z,100005.56
2023-05-10T02:45:10.123Z,100009.28
2023-05-10T02:47:38.512Z,100011.28
2023-05-10T02:50:07.228Z,100014.31
2023-05-10T02:52:41.428Z,100010.97
2023-05-10T02:55:13.963Z,100011.28
2023-05-10T02:57:43.543Z,100014.69
2023-05-10T03:00:12.214Z,100008.31
2023-05-10T03:02:40.782Z,100014.88
2023-05-10T03:05:09.694Z,100016.38
2023-05-10T03:07:38.434Z,100013.34
2023-05-10T03:10:07.340Z,100022.09
2023-05-10T03:12:49.284Z,100008.13
2023-05-10T03:15:21.860Z,100014.69
2023-05-10T03:17:52.206Z,100004.59
2023-05-10T03:20:23.596Z,100007.13
2023-05-10T03:22:54.306Z,100016.06
2023-05-10T03:25:23.446Z,100010.00
2023-05-10T03:27:54.469Z,100014.09
2023-05-10T03:30:23.642Z,100005.78
2023-05-10T03:32:51.825Z,100005.06
2023-05-10T03:35:20.163Z,100011.97
2023-05-10T03:37:48.573Z,100005.78
2023-05-10T03:40:17.369Z,100005.56
2023-05-10T03:42:46.242Z,100002.00
2023-05-10T03:45:16.258Z,99999.84
2023-05-10T03:47:44.672Z,99996.41
2023-05-10T03:50:12.704Z,99995.44
2023-05-10T03:52:41.258Z,99995.09
2023-05-10T03:55:09.812Z,100003.50
2023-05-10T03:57:38.207Z,100000.97
2023-05-10T04:00:08.211Z,99993.41
2023-05-10T04:02:47.190Z,99992.56
2023-05-10T04:05:20.796Z,99990.53
2023-05-10T04:07:50.399Z,99999.78
2023-05-10T04:10:18.922Z,100008.91
2023-05-10T04:12:47.301Z,99998.75
2023-05-10T04:15:15.487Z,99995.38
2023-05-10T04:17:43.613Z,99998.75
2023-05-10T04:20:14.419Z,99998.09
2023-05-10T04:22:43.177Z,100001.09
2023-05-10T04:25:11.717Z,99993.50
2023-05-10T04:27:39.672Z,99991.72
2023-05-10T04:30:08.455Z,100002.19
2023-05-10T04:32:38.602Z,100003.50
2023-05-10T04:35:07.594Z,100000.84
2023-05-10T04:37:37.621Z,100002.66
2023-05-10T04:40:06.432Z,100007.94
2023-05-10T04:42:34.563Z,100004.22
2023-05-10T04:45:02.777Z,100004.94
2023-05-10T04:47:31.184Z,99991.72
2023-05-10T04:49:59.575Z,99994.84
2023-05-10T04:52:27.761Z,99986.31
2023-05-10T04:54:57.323Z,99987.69
2023-05-10T04:57:25.837Z,99981.75
2023-05-10T04:59:53.901Z,99990.03
2023-05-10T05:02:22.135Z,99991.00
2023-05-10T05:04:50.159Z,99987.84
2023-05-10T05:07:18.268Z,99998.50
2023-05-10T05:09:46.429Z,99987.28
2023-05-10T05:12:16.001Z,99991.69
2023-05-10T05:14:44.206Z,99998.91
2023-05-10T05:17:12.330Z,100010.22
2023-05-10T05:19:40.527Z,100005.25
2023-05-10T05:22:08.847Z,100009.63
2023-05-10T05:24:40.340Z,100003.91
2023-05-10T05:27:08.680Z,100005.56
2023-05-10T05:29:38.440Z,100005.28
2023-05-10T05:32:09.605Z,100002.19
2023-05-10T05:34:38.020Z,100004.59
2023-05-10T05:37:06.097Z,100000.03
2023-05-10T05:39:34.317Z,99997.50
2023-05-10T05:42:02.343Z,100009.63
2023-05-10T05:44:30.434Z,100008.91
2023-05-10T05:47:00.301Z,100007.59
2023-05-10T05:49:28.506Z,100011.28
2023-05-10T05:51:56.775Z,100016.00
2023-05-10T05:54:25.199Z,100011.66
2023-05-10T05:56:53.435Z,100011.28
2023-05-10T05:59:21.732Z,100011.97
2023-05-10T06:01:50.125Z,100018.03
2023-05-10T06:04:19.669Z,100029.56
2023-05-10T06:06:47.860Z,100032.09
2023-05-10T06:09:16.025Z,100028.56
2023-05-10T06:11:44.267Z,100034.97
2023-05-10T06:14:12.395Z,100029.44
2023-05-10T06:16:40.784Z,100036.34
2023-05-10T06:19:09.184Z,100044.59
2023-05-10T06:21:38.750Z,100047.47
2023-05-10T06:24:07.862Z,100057.44
2023-05-10T06:26:35.980Z,100072.44
2023-05-10T06:29:04.385Z,100059.91
2023-05-10T06:31:32.997Z,100072.19
2023-05-10T06:34:01.037Z,100064.47
2023-05-10T06:36:29.335Z,100068.50
2023-05-10T06:38:58.896Z,100061.81
2023-05-10T06:41:27.053Z,100063.50
2023-05-10T06:43:55.113Z,100063.25
2023-05-10T06:46:23.248Z,100053.03
2023-05-10T06:48:51.300Z,100060.28
2023-05-10T06:51:19.498Z,100057.72
2023-05-10T06:53:47.637Z,100063.72
2023-05-10T06:56:17.157Z,100062.19
2023-05-10T06:58:45.327Z,100065.97
2023-05-10T07:01:13.513Z,100067.84
2023-05-10T07:03:42.291Z,100066.19
2023-05-10T07:06:21.624Z,100061.00
2023-05-10T07:08:58.165Z,100071.66
2023-05-10T07:11:27.865Z,100069.88
2023-05-10T07:13:56.509Z,100073.91
2023-05-10T07:16:24.642Z,100065.50
2023-05-10T07:18:54.104Z,100070.91
2023-05-10T07:21:25.096Z,100059.81
2023-05-10T07:23:54.154Z,100058.13
2023-05-10T07:26:22.244Z,100060.94
2023-05-10T07:28:52.494Z,100061.41
2023-05-10T07:31:20.708Z,100051.22
2023-05-10T07:33:48.753Z,100045.25
2023-05-10T07:36:17.102Z,100036.75
2023-05-10T07:38:45.234Z,100042.25
2023-05-10T07:41:13.614Z,100037.50
2023-05-10T07:43:42.036Z,100041.88
2023-05-10T07:46:12.077Z,100037.84
2023-05-10T07:48:40.194Z,100033.19
2023-05-10T07:51:10.505Z,100035.44
2023-05-10T07:53:38.852Z,100040.22
2023-05-10T07:56:22.605Z,100040.94
2023-05-10T07:58:50.820Z,100038.22
2023-05-10T08:01:20.326Z,100045.50
2023-05-10T08:03:48.657Z,100046.81
2023-05-10T08:06:16.952Z,100047.38
2023-05-10T08:08:46.659Z,100045.22
2023-05-10T08:11:15.048Z,100045.50
2023-05-10T08:13:43.154Z,100041.22
2023-05-10T08:16:11.266Z,100046.09
2023-05-10T08:18:40.842Z,100041.22
2023-05-10T08:21:08.878Z,100045.78
2023-05-10T08:23:36.921Z,100044.97
2023-05-10T08:26:05.064Z,100038.97
2023-05-10T08:28:33.155Z,100031.47
2023-05-10T08:31:01.222Z,100027.88
2023-05-10T08:33:29.365Z,100030.22
2023-05-10T08:35:59.039Z,100033.19
2023-05-10T08:38:27.101Z,100030.50
2023-05-10T08:40:57.689Z,100022.88
2023-05-10T08:43:28.052Z,100029.38
2023-05-10T08:45:56.519Z,100036.63
2023-05-10T08:48:26.295Z,100029.91
2023-05-10T08:50:55.931Z,100021.06
2023-05-10T08:53:28.325Z,100016.69
2023-05-10T08:55:57.477Z,100011.56
2023-05-10T08:58:25.480Z,100023.66
2023-05-10T09:00:53.899Z,100022.16
2023-05-10T09:03:22.098Z,100029.06
2023-05-10T09:05:50.616Z,100030.00
2023-05-10T09:08:19.428Z,100054.59
2023-05-10T09:10:50.504Z,100042.63
2023-05-10T09:13:19.339Z,100045.13
2023-05-10T09:15:48.080Z,100033.94
2023-05-10T09:18:16.399Z,100032.13
2023-05-10T09:20:44.933Z,100032.38
2023-05-10T09:23:12.979Z,100025.19
2023-05-10T09:25:43.548Z,100028.44
2023-05-10T09:28:13.486Z,100041.88
2023-05-10T09:30:41.699Z,100048.16
2023-05-10T09:33:10.026Z,100034.34
2023-05-10T09:35:41.192Z,100026.44
2023-05-10T09:38:09.276Z,100004.94
2023-05-10T09:40:38.026Z,99996.59
2023-05-10T09:43:08.227Z,99986.25
2023-05-10T09:45:39.193Z,99985.84
2023-05-10T09:48:08.194Z,99998.84
2023-05-10T09:50:36.295Z,99996.00
2023-05-10T09:53:05.575Z,99996.44
2023-05-10T09:55:41.487Z,100021.19
2023-05-10T09:58:11.945Z,99997.75
2023-05-10T10:00:41.996Z,100002.75
2023-05-10T10:03:14.664Z,100004.84
2023-05-10T10:05:43.697Z,99999.41
2023-05-10T10:08:12.302Z,99996.53
2023-05-10T10:10:41.497Z,99983.56
2023-05-10T10:13:10.204Z,100002.78
2023-05-10T10:15:38.376Z,100000.41
2023-05-10T10:18:08.036Z,100022.84
2023-05-10T10:20:39.449Z,99990.69
2023-05-10T10:23:07.503Z,100009.56
2023-05-10T10:25:35.594Z,100011.81
2023-05-10T10:28:11.151Z,100007.38
2023-05-10T10:30:42.387Z,100016.94
2023-05-10T10:33:28.703Z,100027.25
2023-05-10T10:35:57.973Z,100031.28
2023-05-10T10:38:26.217Z,100018.72
2023-05-10T10:41:04.680Z,100017.47
2023-05-10T10:43:32.907Z,99995.25
2023-05-10T10:46:12.522Z,100000.31
2023-05-10T10:48:42.369Z,100005.75
2023-05-10T10:51:12.699Z,100003.69
2023-05-10T10:53:42.114Z,100002.41
2023-05-10T10:56:11.499Z,99993.19
2023-05-10T10:58:40.601Z,99988.22
2023-05-10T11:01:12.842Z,99997.00
2023-05-10T11:03:42.554Z,99991.28
2023-05-10T11:06:11.072Z,99986.91
2023-05-10T11:08:45.037Z,99983.16
2023-05-10T11:16:12.208Z,99992.56
2023-05-10T11:18:40.569Z,100005.34
2023-05-10T11:21:11.700Z,100007.44
2023-05-10T11:23:52.795Z,100000.13
2023-05-10T11:26:24.360Z,100001.16
2023-05-10T11:28:52.693Z,100016.22
2023-05-10T11:31:21.485Z,100019.13
2023-05-10T11:33:51.124Z,100006.91
2023-05-10T11:36:21.976Z,100000.03
2023-05-10T11:38:50.558Z,99998.03
2023-05-10T11:41:19.653Z,99972.09
2023-05-10T11:43:50.013Z,99981.06
2023-05-10T11:46:18.562Z,99977.50
2023-05-10T11:48:46.640Z,99990.63
2023-05-10T11:51:15.005Z,99983.75
2023-05-10T11:53:44.461Z,99990.47
2023-05-10T11:56:12.638Z,100003.28
2023-05-10T11:58:41.250Z,99979.09
2023-05-10T12:01:10.155Z,99986.31
2023-05-10T12:03:39.320Z,99987.69
2023-05-10T12:06:09.439Z,99967.66
2023-05-10T12:08:37.962Z,99974.47
2023-05-10T12:11:08.868Z,99982.94
2023-05-10T12:13:40.292Z,99999.66
2023-05-10T12:16:16.356Z,100005.06
2023-05-10T12:18:44.963Z,99993.25
2023-05-10T12:21:13.828Z,99996.03
2023-05-10T12:23:42.106Z,99975.50
2023-05-10T12:26:12.611Z,99979.78
2023-05-10T12:28:40.953Z,99972.03
2023-05-10T12:31:09.316Z,99951.28
2023-05-10T12:33:37.921Z,99952.16
2023-05-10T12:36:06.164Z,99961.19
2023-05-10T12:38:35.415Z,99983.97
2023-05-10T12:41:04.561Z,99999.31
2023-05-10T12:43:34.867Z,99966.75
2023-05-10T12:46:06.678Z,99949.19
2023-05-10T12:48:36.066Z,99956.84
2023-05-10T12:51:04.668Z,99964.25
2023-05-10T12:53:33.202Z,99961.53
2023-05-10T12:56:01.399Z,99976.13
2023-05-10T12:58:35.528Z,99981.47
2023-05-10T13:01:09.002Z,99970.22
2023-05-10T13:03:42.027Z,99974.63
2023-05-10T13:06:16.268Z,99973.22
2023-05-10T13:08:45.276Z,99970.53
2023-05-10T13:11:18.169Z,99965.13
2023-05-10T13:13:50.177Z,99947.69
2023-05-10T13:16:24.143Z,99946.94
2023-05-10T13:18:55.453Z,99963.22
2023-05-10T13:21:29.542Z,99988.88
2023-05-10T13:24:03.618Z,100003.34
2023-05-10T13:26:36.999Z,99995.25
2023-05-10T13:29:09.208Z,99995.94
2023-05-10T13:31:45.343Z,99998.78
2023-05-10T13:34:20.330Z,99987.97
2023-05-10T13:36:53.369Z,100003.66
2023-05-10T13:39:27.302Z,100002.91
2023-05-10T13:42:00.012Z,99993.22
2023-05-10T13:44:33.719Z,99987.97
2023-05-10T13:47:09.594Z,99978.59
2023-05-10T13:49:43.078Z,99991.91
2023-05-10T13:52:16.473Z,99984.13
2023-05-10T13:54:50.771Z,99974.47
2023-05-10T13:57:24.118Z,99963.56
2023-05-10T13:59:57.767Z,99960.78
2023-05-10T14:02:34.498Z,99987.94
2023-05-10T14:05:09.517Z,99988.19
2023-05-10T14:07:43.933Z,99991.44
2023-05-10T14:10:17.734Z,100004.19
2023-05-10T14:12:51.541Z,100006.75
2023-05-10T14:15:25.568Z,100001.13
2023-05-10T14:18:02.510Z,100017.88
2023-05-10T14:20:36.449Z,100016.63
2023-05-10T14:23:11.734Z,100014.84
2023-05-10T14:25:46.170Z,100029.03
2023-05-10T14:28:15.561Z,100041.31
2023-05-10T14:30:46.338Z,100031.50
2023-05-10T14:33:23.005Z,100011.53
2023-05-10T14:35:53.298Z,99995.38
2023-05-10T14:38:24.630Z,99998.53
2023-05-10T14:40:57.884Z,100014.28
2023-05-10T14:43:31.549Z,100016.09
2023-05-10T14:46:05.617Z,100019.91
2023-05-10T14:48:36.296Z,100008.03
2023-05-10T14:51:07.532Z,99989.34
2023-05-10T14:53:36.021Z,99976.56
2023-05-10T14:56:04.873Z,99971.06
2023-05-10T14:58:35.489Z,99967.25
2023-05-10T15:01:05.578Z,99992.00
2023-05-10T15:03:38.558Z,99955.88
2023-05-10T15:06:15.957Z,99969.72
2023-05-10T15:08:46.537Z,99985.28
2023-05-10T15:16:11.848Z,100014.16
2023-05-10T15:18:40.375Z,100032.09
2023-05-10T15:21:12.288Z,100018.69
2023-05-10T15:23:42.906Z,100000.19
2023-05-10T15:26:14.262Z,99994.44
2023-05-10T15:28:44.107Z,100003.06
2023-05-10T15:31:12.309Z,100004.00
2023-05-10T15:33:43.075Z,99985.56
2023-05-10T15:36:14.093Z,99990.06
2023-05-10T15:38:46.290Z,99976.75
2023-05-10T15:41:15.683Z,99965.63
2023-05-10T15:43:44.116Z,99953.19
2023-05-10T15:46:14.316Z,99967.22
2023-05-10T15:48:43.539Z,99965.50
2023-05-10T15:51:12.427Z,99960.56
2023-05-10T15:53:56.463Z,99966.53
2023-05-10T15:56:29.448Z,99943.88
2023-05-10T15:58:59.438Z,99956.50
2023-05-10T16:01:28.753Z,99951.06
2023-05-10T16:03:57.033Z,99982.59
2023-05-10T16:06:25.218Z,99972.09
2023-05-10T16:08:58.334Z,99954.63
2023-05-10T16:11:27.799Z,99953.28
2023-05-10T16:13:59.282Z,99966.13
2023-05-10T16:16:29.299Z,99963.22
2023-05-10T16:18:58.233Z,99982.63
2023-05-10T16:21:28.512Z,99989.13
2023-05-10T16:24:01.075Z,99976.78
2023-05-10T16:26:29.230Z,99961.31
2023-05-10T16:29:00.460Z,99963.53
2023-05-10T16:31:30.080Z,99959.34
2023-05-10T16:34:02.061Z,99992.03
2023-05-10T16:36:36.103Z,100005.25
2023-05-10T16:39:05.983Z,100003.28
2023-05-10T16:41:36.869Z,100016.94
2023-05-10T16:44:05.499Z,100020.97
2023-05-10T16:46:39.447Z,100028.38
2023-05-10T16:49:09.691Z,100031.13
2023-05-10T16:51:43.088Z,100045.13
2023-05-10T16:54:16.227Z,100060.03
2023-05-10T16:56:46.416Z,100065.06
2023-05-10T16:59:17.514Z,100078.66
2023-05-10T17:01:50.359Z,100075.75
2023-05-10T17:04:20.892Z,100080.38
2023-05-10T17:06:53.040Z,100058.75
2023-05-10T17:09:27.001Z,100052.25
2023-05-10T17:11:59.144Z,100064.00
2023-05-10T17:14:31.572Z,100086.81
2023-05-10T17:17:01.339Z,100083.22
2023-05-10T17:19:33.200Z,100079.47
2023-05-10T17:22:06.444Z,100087.84
2023-05-10T17:24:42.625Z,100085.78
2023-05-10T17:27:15.278Z,100078.88
2023-05-10T17:29:47.705Z,100091.88
2023-05-10T17:32:17.063Z,100066.91
2023-05-10T17:34:48.812Z,100071.56
2023-05-10T17:37:20.525Z,100082.22
2023-05-10T17:39:55.249Z,100060.25
2023-05-10T17:42:25.040Z,100066.91
2023-05-10T17:44:53.633Z,100061.00
2023-05-10T17:47:24.554Z,100059.31
2023-05-10T17:49:57.757Z,100056.78
2023-05-10T17:52:32.156Z,100072.22
2023-05-10T17:55:06.947Z,100076.69
2023-05-10T17:57:38.120Z,100079.16
2023-05-10T18:00:10.647Z,100088.69
2023-05-10T18:02:44.340Z,100078.94
2023-05-10T18:05:24.564Z,100093.09
2023-05-10T18:07:56.485Z,100090.25
2023-05-10T18:10:31.162Z,100105.88
2023-05-10T18:12:59.587Z,100114.22
2023-05-10T18:15:32.691Z,100110.84
2023-05-10T18:18:03.034Z,100126.00
2023-05-10T18:20:35.493Z,100120.47
2023-05-10T18:23:05.100Z,100101.50
2023-05-10T18:25:34.654Z,100096.56
2023-05-10T18:28:03.978Z,100104.00
2023-05-10T18:30:37.065Z,100101.81
2023-05-10T18:33:10.349Z,100122.38
2023-05-10T18:35:43.795Z,100124.66
2023-05-10T18:38:17.101Z,100122.13
2023-05-10T18:40:53.526Z,100133.88
2023-05-10T18:43:22.758Z,100136.53
2023-05-10T18:45:51.280Z,100142.78
2023-05-10T18:48:22.393Z,100141.91
2023-05-10T18:50:54.587Z,100133.16
2023-05-10T18:53:28.154Z,100133.75
2023-05-10T18:56:00.707Z,100132.94
2023-05-10T18:58:33.203Z,100132.31
2023-05-10T19:01:06.831Z,100122.28
2023-05-10T19:03:39.235Z,100116.91
2023-05-10T19:06:12.060Z,100119.31
2023-05-10T19:08:42.354Z,100117.75
2023-05-10T19:11:12.827Z,100129.78
2023-05-10T19:13:42.703Z,100119.63
2023-05-10T19:16:16.522Z,100130.88
2023-05-10T19:18:45.868Z,100138.69
2023-05-10T19:21:16.245Z,100129.34
2023-05-10T19:23:49.947Z,100134.84
2023-05-10T19:26:21.218Z,100133.47
2023-05-10T19:28:55.444Z,100136.00
2023-05-10T19:31:25.248Z,100142.25
2023-05-10T19:34:00.748Z,100157.69
2023-05-10T19:36:36.189Z,100164.41
2023-05-10T19:39:07.313Z,100166.19
2023-05-10T19:41:42.900Z,100160.97
2023-05-10T19:44:16.339Z,100172.19
2023-05-10T19:46:46.596Z,100165.72
2023-05-10T19:49:16.792Z,100172.66
2023-05-10T19:51:49.221Z,100178.91
2023-05-10T19:54:21.890Z,100177.38
2023-05-10T19:56:51.849Z,100185.03
2023-05-10T19:59:21.473Z,100183.28
2023-05-10T20:01:54.793Z,100195.88
2023-05-10T20:04:29.681Z,100186.41
2023-05-10T20:07:02.663Z,100187.78
2023-05-10T20:09:33.876Z,100185.88
2023-05-10T20:12:07.299Z,100189.22
2023-05-10T20:14:35.984Z,100195.84
2023-05-10T20:17:08.259Z,100196.75
2023-05-10T20:19:39.738Z,100199.88
2023-05-10T20:22:10.576Z,100194.31
2023-05-10T20:24:38.677Z,100206.66
2023-05-10T20:27:10.991Z,100217.34
2023-05-10T20:29:41.218Z,100225.63
2023-05-10T20:32:10.969Z,100233.97
2023-05-10T20:34:40.942Z,100238.25
2023-05-10T20:37:11.159Z,100224.41
2023-05-10T20:39:40.357Z,100231.19
2023-05-10T20:42:10.193Z,100225.81
2023-05-10T20:44:40.638Z,100237.59
2023-05-10T20:47:10.253Z,100237.59
2023-05-10T20:49:41.713Z,100246.41
2023-05-10T20:52:11.530Z,100249.28
2023-05-10T20:54:39.614Z,100256.38
2023-05-10T20:57:14.316Z,100249.22
2023-05-10T20:59:45.621Z,100252.78
2023-05-10T21:02:16.452Z,100258.19
2023-05-10T21:04:46.432Z,100252.91
2023-05-10T21:07:15.849Z,100260.53
2023-05-10T21:09:44.713Z,100260.53
2023-05-10T21:12:15.596Z,100271.28
2023-05-10T21:14:47.067Z,100270.63
2023-05-10T21:17:19.453Z,100279.06
2023-05-10T21:19:49.419Z,100277.91
2023-05-10T21:22:21.362Z,100278.09
2023-05-10T21:24:49.771Z,100279.53
2023-05-10T21:27:19.294Z,100290.00
2023-05-10T21:29:47.618Z,100285.66
2023-05-10T21:32:16.322Z,100293.19
2023-05-10T21:34:44.472Z,100292.09
2023-05-10T21:37:12.548Z,100284.66
2023-05-10T21:39:44.014Z,100278.41
2023-05-10T21:42:13.388Z,100283.31
2023-05-10T21:44:45.582Z,100282.81
2023-05-10T21:47:14.254Z,100285.84
2023-05-10T21:49:43.336Z,100289.38
2023-05-10T21:52:11.646Z,100294.31
2023-05-10T21:54:39.862Z,100281.19
2023-05-10T21:57:07.953Z,100275.78
2023-05-10T21:59:36.893Z,100278.78
2023-05-10T22:02:07.142Z,100281.66
2023-05-10T22:04:35.222Z,100283.16
2023-05-10T22:07:03.377Z,100286.22
2023-05-10T22:09:32.414Z,100280.66
2023-05-10T22:12:00.873Z,100284.91
2023-05-10T22:14:29.899Z,100269.38
2023-05-10T22:16:59.030Z,100274.78
2023-05-10T22:19:28.688Z,100283.19
2023-05-10T22:21:59.746Z,100284.75
2023-05-10T22:24:28.888Z,100283.28
2023-05-10T22:26:57.633Z,100280.88
2023-05-10T22:29:26.210Z,100281.22
2023-05-10T22:31:54.775Z,100285.28
2023-05-10T22:34:23.550Z,100296.59
2023-05-10T22:36:54.038Z,100293.03
2023-05-10T22:39:24.913Z,100288.63
2023-05-10T22:41:53.779Z,100294.56
2023-05-10T22:44:23.927Z,100291.69
2023-05-10T22:46:53.998Z,100290.19
2023-05-10T22:49:22.445Z,100288.50
2023-05-10T22:51:51.062Z,100293.75
2023-05-10T22:54:21.515Z,100291.69
2023-05-10T22:56:50.914Z,100298.78
2023-05-10T22:59:19.164Z,100302.38
2023-05-10T23:01:49.014Z,100298.78
2023-05-10T23:04:19.916Z,100305.38
2023-05-10T23:06:49.375Z,100301.69
2023-05-10T23:09:18.479Z,100306.25
2023-05-10T23:11:48.895Z,100310.13
2023-05-10T23:14:18.140Z,100311.69
2023-05-10T23:16:46.281Z,100303.84
2023-05-10T23:19:15.119Z,100312.66
2023-05-10T23:21:43.528Z,100311.97
2023-05-10T23:24:11.791Z,100318.72
2023-05-10T23:26:40.053Z,100308.25
2023-05-10T23:29:10.628Z,100313.50
2023-05-10T23:31:40.835Z,100324.50
2023-05-10T23:34:09.534Z,100316.72
2023-05-10T23:36:37.734Z,100311.97
2023-05-10T23:39:07.073Z,100319.41
2023-05-10T23:41:35.401Z,100317.72
2023-05-10T23:44:03.469Z,100322.63
2023-05-10T23:46:33.094Z,100323.66
2023-05-10T23:49:01.358Z,100325.47
2023-05-10T23:51:29.609Z,100329.38
2023-05-10T23:53:57.574Z,100328.00
2023-05-10T23:56:25.665Z,100336.47
2023-05-10T23:58:53.903Z,100327.34
